Little America, Wyoming
Current Conditions -  °F | °C
As of 10:55 PM on Saturday 22 Nov 2014 (Local Time) from KFBR Reporting Station
Overcast Overcast  
Wind Chill: 18°   Ceiling: 4300
Heat Index: 30°   Visibility: 10mi
Dew Point: 27°   Wind: 16mph
Humidity: 90%   Direction: 260°W
Pressure: 29.86"   Gusts: NA
Location:  41.54°N, 109.86°W
Report Text: KFBR 230555Z AUTO 26014KT 10SM BKN043 OVC050 M01/M03 A2986 RMK AO2 T10131028 10006 21013 400671013
Loading
Personal Weather Stations






























Interactive Weather Map New forecast layout! Learn more

10-Day Weather Forecast

Advertisements
Track Severe Weather on mobile